createdAt,value
2022-08-05T00:00:22.820Z,982.96
2022-08-05T00:01:27.597Z,982.98
2022-08-05T00:02:22.931Z,982.94
2022-08-05T00:03:22.796Z,983.00
2022-08-05T00:04:22.785Z,983.04
2022-08-05T00:06:02.764Z,983.09
2022-08-05T00:06:32.144Z,983.14
2022-08-05T00:07:59.370Z,983.15
2022-08-05T00:08:34.865Z,983.17
2022-08-05T00:09:22.740Z,983.16
2022-08-05T00:10:22.735Z,983.18
2022-08-05T00:11:30.498Z,983.18
2022-08-05T00:12:22.713Z,983.20
2022-08-05T00:13:38.101Z,983.17
2022-08-05T00:14:22.689Z,983.18
2022-08-05T00:15:56.263Z,983.12
2022-08-05T00:16:35.383Z,983.15
2022-08-05T00:17:22.666Z,983.16
2022-08-05T00:18:22.917Z,983.15
2022-08-05T00:19:23.424Z,983.15
2022-08-05T00:20:22.630Z,983.17
2022-08-05T00:21:22.625Z,983.20
2022-08-05T00:22:22.605Z,983.26
2022-08-05T00:23:45.541Z,983.30
2022-08-05T00:24:24.597Z,983.32
2022-08-05T00:25:22.588Z,983.34
2022-08-05T00:26:22.670Z,983.33
2022-08-05T00:27:22.638Z,983.33
2022-08-05T00:28:29.631Z,983.27
2022-08-05T00:29:25.414Z,983.26
2022-08-05T00:30:31.916Z,983.21
2022-08-05T00:31:41.299Z,983.19
2022-08-05T00:32:22.517Z,983.18
2022-08-05T00:34:54.424Z,983.19
2022-08-05T00:35:10.457Z,983.20
2022-08-05T00:35:22.481Z,983.23
2022-08-05T00:37:12.692Z,983.25
2022-08-05T00:37:22.468Z,983.24
2022-08-05T00:38:28.834Z,983.25
2022-08-05T00:39:22.490Z,983.25
2022-08-05T00:40:27.018Z,983.26
2022-08-05T00:41:22.426Z,983.28
2022-08-05T00:42:31.679Z,983.28
2022-08-05T00:43:22.409Z,983.25
2022-08-05T00:44:23.206Z,983.26
2022-08-05T00:45:28.399Z,983.25
2022-08-05T00:46:42.778Z,983.25
2022-08-05T00:47:22.398Z,983.25
2022-08-05T00:48:31.183Z,983.23
2022-08-05T00:49:22.350Z,983.23
2022-08-05T00:50:22.332Z,983.23
2022-08-05T00:51:50.411Z,983.20
2022-08-05T00:52:28.626Z,983.20
2022-08-05T00:54:00.707Z,983.21
2022-08-05T00:54:22.305Z,983.21
2022-08-05T00:55:22.298Z,983.24
2022-08-05T00:56:22.690Z,983.27
2022-08-05T00:57:22.590Z,983.27
2022-08-05T00:58:22.254Z,983.31
2022-08-05T00:59:22.268Z,983.31
2022-08-05T01:00:22.239Z,983.34
2022-08-05T01:01:42.220Z,983.36
2022-08-05T01:02:22.249Z,983.39
2022-08-05T01:03:23.183Z,983.38
2022-08-05T01:04:26.960Z,983.40
2022-08-05T01:05:22.193Z,983.43
2022-08-05T01:06:22.186Z,983.48
2022-08-05T01:07:22.197Z,983.50
2022-08-05T01:08:41.029Z,983.55
2022-08-05T01:09:22.159Z,983.61
2022-08-05T01:10:22.134Z,983.63
2022-08-05T01:11:33.691Z,983.67
2022-08-05T01:12:22.121Z,983.71
2022-08-05T01:13:22.451Z,983.74
2022-08-05T01:14:28.445Z,983.77
2022-08-05T01:15:35.111Z,983.75
2022-08-05T01:16:26.326Z,983.76
2022-08-05T01:17:22.260Z,983.79
2022-08-05T01:18:22.057Z,983.82
2022-08-05T01:19:30.153Z,983.90
2022-08-05T01:20:22.418Z,983.93
2022-08-05T01:21:22.972Z,984.09
2022-08-05T01:22:24.285Z,984.20
2022-08-05T01:23:22.890Z,984.27
2022-08-05T01:24:22.158Z,984.39
2022-08-05T01:25:22.026Z,984.46
2022-08-05T01:26:21.983Z,984.50
2022-08-05T01:27:22.190Z,984.54
2022-08-05T01:28:21.961Z,984.55
2022-08-05T01:29:23.235Z,984.54
2022-08-05T01:30:34.130Z,984.49
2022-08-05T01:31:21.949Z,984.51
2022-08-05T01:32:21.922Z,984.56
2022-08-05T01:33:21.914Z,984.65
2022-08-05T01:34:21.923Z,984.78
2022-08-05T01:35:50.837Z,984.81
2022-08-05T01:36:21.898Z,984.86
2022-08-05T01:37:25.002Z,984.88
2022-08-05T01:38:26.840Z,984.91
2022-08-05T01:39:46.849Z,984.94
2022-08-05T01:40:21.857Z,984.98
2022-08-05T01:41:22.061Z,985.02
2022-08-05T01:42:21.843Z,985.04
2022-08-05T01:43:22.291Z,985.06
2022-08-05T01:44:21.804Z,985.04
2022-08-05T01:45:21.809Z,985.02
2022-08-05T01:46:43.012Z,985.02
2022-08-05T01:47:22.129Z,985.01
2022-08-05T01:48:21.791Z,984.99
2022-08-05T01:49:23.896Z,985.00
2022-08-05T01:50:28.704Z,985.00
2022-08-05T01:51:21.747Z,985.00
2022-08-05T01:52:21.728Z,985.01
2022-08-05T01:53:42.203Z,985.04
2022-08-05T01:54:25.616Z,985.07
2022-08-05T01:55:21.718Z,985.08
2022-08-05T01:58:10.720Z,985.04
2022-08-05T01:58:40.421Z,984.95
2022-08-05T01:58:48.508Z,984.88
2022-08-05T01:59:29.537Z,984.84
2022-08-05T02:00:30.686Z,984.80
2022-08-05T02:01:29.582Z,984.74
2022-08-05T02:02:29.545Z,984.67
2022-08-05T02:03:33.902Z,984.62
2022-08-05T02:04:30.027Z,984.57
2022-08-05T02:05:29.483Z,984.53
2022-08-05T02:06:37.540Z,984.46
2022-08-05T02:07:30.338Z,984.39
2022-08-05T02:08:30.679Z,984.29
2022-08-05T02:09:29.461Z,984.16
2022-08-05T02:10:29.427Z,984.04
2022-08-05T02:11:33.416Z,983.92
2022-08-05T02:12:29.409Z,983.82
2022-08-05T02:13:36.482Z,983.70
2022-08-05T02:14:29.394Z,983.56
2022-08-05T02:15:33.500Z,983.39
2022-08-05T02:16:29.373Z,983.21
2022-08-05T02:18:12.520Z,982.99
2022-08-05T02:18:35.465Z,982.76
2022-08-05T02:19:34.274Z,982.53
2022-08-05T02:20:29.340Z,982.28
2022-08-05T02:21:29.331Z,982.06
2022-08-05T02:22:29.347Z,981.87
2022-08-05T02:23:29.310Z,981.78
2022-08-05T02:24:29.294Z,981.77
2022-08-05T02:25:33.085Z,981.89
2022-08-05T02:26:29.279Z,981.90
2022-08-05T02:27:29.975Z,981.92
2022-08-05T02:28:33.004Z,981.87
2022-08-05T02:29:59.584Z,981.84
2022-08-05T02:30:29.933Z,981.84
2022-08-05T02:31:29.237Z,981.88
2022-08-05T02:32:31.686Z,981.98
2022-08-05T02:33:35.928Z,982.08
2022-08-05T02:34:29.205Z,982.18
2022-08-05T02:35:33.220Z,982.29
2022-08-05T02:36:31.478Z,982.32
2022-08-05T02:37:29.174Z,982.29
2022-08-05T02:38:35.268Z,982.28
2022-08-05T02:39:29.202Z,982.32
2022-08-05T02:40:29.151Z,982.35
2022-08-05T02:41:43.133Z,982.39
2022-08-05T02:42:34.320Z,982.38
2022-08-05T02:43:29.120Z,982.38
2022-08-05T02:44:29.125Z,982.42
2022-08-05T02:45:51.637Z,982.48
2022-08-05T02:46:29.089Z,982.53
2022-08-05T02:47:58.686Z,982.57
2022-08-05T02:48:29.940Z,982.63
2022-08-05T02:49:37.118Z,982.62
2022-08-05T02:50:29.069Z,982.55
2022-08-05T02:52:03.453Z,982.52
2022-08-05T02:52:30.676Z,982.47
2022-08-05T02:53:29.017Z,982.46
2022-08-05T02:54:34.765Z,982.43
2022-08-05T02:55:52.044Z,982.31
2022-08-05T02:56:29.011Z,982.25
2022-08-05T02:58:09.759Z,982.26
2022-08-05T02:58:30.310Z,982.24
2022-08-05T02:59:28.987Z,982.32
2022-08-05T03:00:28.953Z,982.40
2022-08-05T03:01:29.001Z,982.51
2022-08-05T03:02:28.948Z,982.60
2022-08-05T03:03:34.198Z,982.67
2022-08-05T03:04:28.906Z,982.69
2022-08-05T03:06:57.159Z,982.69
2022-08-05T03:07:04.095Z,982.71
2022-08-05T03:07:59.123Z,982.73
2022-08-05T03:08:29.982Z,982.73
2022-08-05T03:09:38.125Z,982.72
2022-08-05T03:10:28.878Z,982.71
2022-08-05T03:11:57.133Z,982.69
2022-08-05T03:12:28.857Z,982.70
2022-08-05T03:13:51.426Z,982.74
2022-08-05T03:14:28.809Z,982.78
2022-08-05T03:15:28.805Z,982.76
2022-08-05T03:16:28.784Z,982.72
2022-08-05T03:17:28.780Z,982.68
2022-08-05T03:18:30.109Z,982.62
2022-08-05T03:19:33.203Z,982.58
2022-08-05T03:20:28.755Z,982.53
2022-08-05T03:21:29.035Z,982.51
2022-08-05T03:22:32.407Z,982.50
2022-08-05T03:23:28.721Z,982.51
2022-08-05T03:24:30.389Z,982.51
2022-08-05T03:25:33.476Z,982.52
2022-08-05T03:26:31.733Z,982.50
2022-08-05T03:27:39.169Z,982.45
2022-08-05T03:28:28.721Z,982.41
2022-08-05T03:29:44.827Z,982.40
2022-08-05T03:30:33.656Z,982.41
2022-08-05T03:31:55.740Z,982.40
2022-08-05T03:32:30.819Z,982.38
2022-08-05T03:33:32.143Z,982.33
2022-08-05T03:34:28.763Z,982.28
2022-08-05T03:35:28.605Z,982.20
2022-08-05T03:36:30.706Z,982.16
2022-08-05T03:37:28.587Z,982.15
2022-08-05T03:38:33.131Z,982.15
2022-08-05T03:39:28.596Z,982.16
2022-08-05T03:40:31.821Z,982.20
2022-08-05T03:41:32.944Z,982.23
2022-08-05T03:42:29.049Z,982.24
2022-08-05T03:44:08.202Z,982.27
2022-08-05T03:44:29.059Z,982.30
2022-08-05T03:45:28.509Z,982.32
2022-08-05T03:46:29.662Z,982.31
2022-08-05T03:47:30.498Z,982.28
2022-08-05T03:48:29.147Z,982.23
2022-08-05T03:49:31.049Z,982.20
2022-08-05T03:50:28.465Z,982.19
2022-08-05T03:52:36.629Z,982.19
2022-08-05T03:55:52.829Z,982.23
2022-08-05T03:56:17.899Z,982.31
2022-08-05T03:56:35.698Z,982.25
2022-08-05T03:57:29.028Z,982.20
2022-08-05T03:58:28.872Z,982.19
2022-08-05T03:59:25.397Z,982.21
2022-08-05T04:00:25.389Z,982.24
2022-08-05T04:01:25.490Z,982.24
2022-08-05T04:02:38.188Z,982.25
2022-08-05T04:03:28.479Z,982.26
2022-08-05T04:04:26.572Z,982.32
2022-08-05T04:05:25.342Z,982.46
2022-08-05T04:06:25.334Z,982.70
2022-08-05T04:07:25.616Z,982.96
2022-08-05T04:08:35.207Z,983.22
2022-08-05T04:09:26.375Z,983.47
2022-08-05T04:10:25.296Z,983.71
2022-08-05T04:11:25.284Z,983.91
2022-08-05T04:12:25.284Z,984.08
2022-08-05T04:13:25.265Z,984.14
2022-08-05T04:14:30.280Z,984.23
2022-08-05T04:15:25.252Z,984.28
2022-08-05T04:16:32.328Z,984.29
2022-08-05T04:17:25.456Z,984.24
2022-08-05T04:18:25.496Z,984.22
2022-08-05T04:19:25.204Z,984.25
2022-08-05T04:20:25.218Z,984.24
2022-08-05T04:22:09.746Z,984.22
2022-08-05T04:22:25.186Z,984.17
2022-08-05T04:24:04.738Z,984.09
2022-08-05T04:24:25.191Z,984.03
2022-08-05T04:25:57.496Z,983.99
2022-08-05T04:26:25.147Z,983.97
2022-08-05T04:27:33.295Z,983.95
2022-08-05T04:28:30.783Z,983.91
2022-08-05T04:29:25.119Z,983.84
2022-08-05T04:30:26.568Z,983.77
2022-08-05T04:31:27.698Z,983.75
2022-08-05T04:32:30.823Z,983.74
2022-08-05T04:33:54.253Z,983.72
2022-08-05T04:34:32.751Z,983.68
2022-08-05T04:35:25.057Z,983.66
2022-08-05T04:36:44.740Z,983.66
2022-08-05T04:38:02.181Z,983.64
2022-08-05T04:38:39.830Z,983.62
2022-08-05T04:39:25.143Z,983.60
2022-08-05T04:40:25.002Z,983.58
2022-08-05T04:41:36.859Z,983.57
2022-08-05T04:42:25.289Z,983.55
2022-08-05T04:43:26.002Z,983.54
2022-08-05T04:44:29.502Z,983.55
2022-08-05T04:45:47.872Z,983.53
2022-08-05T04:46:27.851Z,983.52
2022-08-05T04:47:25.239Z,983.51
2022-08-05T04:48:27.719Z,983.51
2022-08-05T04:49:38.619Z,983.53
2022-08-05T04:50:34.376Z,983.54
2022-08-05T04:51:24.900Z,983.52
2022-08-05T04:52:27.532Z,983.47
2022-08-05T04:53:24.820Z,983.43
2022-08-05T04:54:24.830Z,983.38
2022-08-05T04:56:11.866Z,983.34
2022-08-05T04:56:35.051Z,983.31
2022-08-05T04:57:28.602Z,983.30
2022-08-05T04:58:24.823Z,983.31
2022-08-05T04:59:38.995Z,983.33
2022-08-05T05:00:24.819Z,983.31
2022-08-05T05:02:06.350Z,983.28
2022-08-05T05:02:36.379Z,983.27
2022-08-05T05:03:24.726Z,983.32
2022-08-05T05:04:24.710Z,983.37
2022-08-05T05:05:28.618Z,983.41
2022-08-05T05:06:35.978Z,983.44
2022-08-05T05:07:29.671Z,983.49
2022-08-05T05:08:29.995Z,983.57
2022-08-05T05:09:24.664Z,983.66
2022-08-05T05:10:24.646Z,983.77
2022-08-05T05:11:24.656Z,983.87
2022-08-05T05:12:24.638Z,983.91
2022-08-05T05:13:24.615Z,983.90
2022-08-05T05:14:31.217Z,983.88
2022-08-05T05:15:56.211Z,983.91
2022-08-05T05:16:24.618Z,983.93
2022-08-05T05:17:55.582Z,983.92
2022-08-05T05:18:28.714Z,983.89
2022-08-05T05:19:26.609Z,983.87
2022-08-05T05:20:28.405Z,983.88
2022-08-05T05:21:24.564Z,983.88
2022-08-05T05:22:26.382Z,983.90
2022-08-05T05:23:24.515Z,983.92
2022-08-05T05:24:56.256Z,983.91
2022-08-05T05:25:40.373Z,983.84
2022-08-05T05:26:28.872Z,983.73
2022-08-05T05:27:24.781Z,983.63
2022-08-05T05:28:24.927Z,983.54
2022-08-05T05:29:24.479Z,983.48
2022-08-05T05:30:31.107Z,983.47
2022-08-05T05:31:24.469Z,983.50
2022-08-05T05:32:24.440Z,983.56
2022-08-05T05:33:24.420Z,983.60
2022-08-05T05:34:26.645Z,983.65
2022-08-05T05:35:24.399Z,983.71
2022-08-05T05:36:24.400Z,983.82
2022-08-05T05:37:29.295Z,983.93
2022-08-05T05:38:27.411Z,984.03
2022-08-05T05:39:24.460Z,984.08
2022-08-05T05:40:26.120Z,984.08
2022-08-05T05:41:24.399Z,984.06
2022-08-05T05:42:24.388Z,984.02
2022-08-05T05:43:57.478Z,984.01
2022-08-05T05:44:36.955Z,984.01
2022-08-05T05:45:24.569Z,984.00
2022-08-05T05:46:24.295Z,983.99
2022-08-05T05:47:30.576Z,983.98
2022-08-05T05:48:27.691Z,983.97
2022-08-05T05:49:24.295Z,983.95
2022-08-05T05:50:24.259Z,983.93
2022-08-05T05:51:24.250Z,983.92
2022-08-05T05:52:26.403Z,983.94
2022-08-05T05:53:24.232Z,983.96
2022-08-05T05:54:50.607Z,983.96
2022-08-05T05:55:24.212Z,983.95
2022-08-05T05:56:26.020Z,983.94
2022-08-05T05:57:24.442Z,983.94
2022-08-05T05:58:30.121Z,983.95
2022-08-05T05:59:24.174Z,983.96
2022-08-05T06:00:31.446Z,983.97
2022-08-05T06:01:24.152Z,983.97
2022-08-05T06:02:32.609Z,983.96
2022-08-05T06:03:40.589Z,983.94
2022-08-05T06:04:24.222Z,983.92
2022-08-05T06:05:24.149Z,983.90
2022-08-05T06:06:24.107Z,983.88
2022-08-05T06:07:24.417Z,983.85
2022-08-05T06:08:31.501Z,983.80
2022-08-05T06:09:25.654Z,983.73
2022-08-05T06:10:24.074Z,983.67
2022-08-05T06:11:24.060Z,983.63
2022-08-05T06:12:24.049Z,983.59
2022-08-05T06:13:24.033Z,983.54
2022-08-05T06:14:24.057Z,983.52
2022-08-05T06:15:24.490Z,983.52
2022-08-05T06:16:36.586Z,983.50
2022-08-05T06:17:24.579Z,983.46
2022-08-05T06:18:31.484Z,983.43
2022-08-05T06:19:33.923Z,983.40
2022-08-05T06:20:23.976Z,983.38
2022-08-05T06:21:23.980Z,983.38
2022-08-05T06:22:23.957Z,983.39
2022-08-05T06:23:24.084Z,983.42
2022-08-05T06:24:27.248Z,983.47
2022-08-05T06:25:25.322Z,983.52
2022-08-05T06:26:25.163Z,983.56
2022-08-05T06:28:11.848Z,983.62
2022-08-05T06:28:28.430Z,983.64
2022-08-05T06:29:48.145Z,983.63
2022-08-05T06:30:23.876Z,983.59
2022-08-05T06:31:30.400Z,983.55
2022-08-05T06:32:29.005Z,983.55
2022-08-05T06:34:00.491Z,983.56
2022-08-05T06:34:23.855Z,983.58
2022-08-05T06:36:07.830Z,983.55
2022-08-05T06:36:25.839Z,983.45
2022-08-05T06:37:56.505Z,983.32
2022-08-05T06:38:35.980Z,983.26
2022-08-05T06:39:24.557Z,983.26
2022-08-05T06:40:28.078Z,983.25
2022-08-05T06:41:23.765Z,983.23
2022-08-05T06:42:23.751Z,983.21
2022-08-05T06:43:59.303Z,983.19
2022-08-05T06:44:23.735Z,983.17
2022-08-05T06:45:44.862Z,983.15
2022-08-05T06:46:23.737Z,983.15
2022-08-05T06:47:30.236Z,983.17
2022-08-05T06:48:52.701Z,983.18
2022-08-05T06:50:01.745Z,983.15
2022-08-05T06:50:23.776Z,983.09
2022-08-05T06:51:29.772Z,983.04
2022-08-05T06:52:38.212Z,982.99
2022-08-05T06:53:27.900Z,982.94
2022-08-05T06:54:25.797Z,982.96
2022-08-05T06:55:23.622Z,983.05
2022-08-05T06:56:26.320Z,983.10
2022-08-05T06:58:03.304Z,983.10
2022-08-05T06:58:29.705Z,983.07
2022-08-05T06:59:23.585Z,983.06
2022-08-05T07:00:24.692Z,983.07
2022-08-05T07:01:23.703Z,983.08
2022-08-05T07:02:23.561Z,983.09
2022-08-05T07:03:32.423Z,983.10
2022-08-05T07:04:23.540Z,983.12
2022-08-05T07:05:31.811Z,983.13
2022-08-05T07:06:23.538Z,983.13
2022-08-05T07:07:24.233Z,983.11
2022-08-05T07:08:23.517Z,983.07
2022-08-05T07:09:24.747Z,983.02
2022-08-05T07:10:23.478Z,982.98
2022-08-05T07:11:25.238Z,982.96
2022-08-05T07:12:23.464Z,982.95
2022-08-05T07:13:56.751Z,982.95
2022-08-05T07:14:29.694Z,982.98
2022-08-05T07:15:34.332Z,983.02
2022-08-05T07:17:57.013Z,983.05
2022-08-05T07:18:09.796Z,983.08
2022-08-05T07:18:29.197Z,983.14
2022-08-05T07:20:10.620Z,983.24
2022-08-05T07:20:37.116Z,983.37
2022-08-05T07:21:25.598Z,983.49
2022-08-05T07:22:28.662Z,983.59
2022-08-05T07:23:26.177Z,983.65
2022-08-05T07:24:23.347Z,983.69
2022-08-05T07:25:55.916Z,983.70
2022-08-05T07:26:25.738Z,983.68
2022-08-05T07:27:27.251Z,983.67
2022-08-05T07:28:23.304Z,983.70
2022-08-05T07:30:22.106Z,983.74
2022-08-05T07:30:38.840Z,983.79
2022-08-05T07:31:41.116Z,983.80
2022-08-05T07:32:26.306Z,983.79
2022-08-05T07:33:36.707Z,983.77
2022-08-05T07:34:28.448Z,983.77
2022-08-05T07:36:04.000Z,983.79
2022-08-05T07:36:24.505Z,983.83
2022-08-05T07:37:23.496Z,983.85
2022-08-05T07:38:32.305Z,983.85
2022-08-05T07:39:24.826Z,983.83
2022-08-05T07:40:31.834Z,983.85
2022-08-05T07:42:07.927Z,983.86
2022-08-05T07:42:33.718Z,983.88
2022-08-05T07:43:23.153Z,983.90
2022-08-05T07:44:23.143Z,983.88
2022-08-05T07:45:56.803Z,983.85
2022-08-05T07:46:25.156Z,983.80
2022-08-05T07:47:25.880Z,983.75
2022-08-05T07:49:03.350Z,983.70
2022-08-05T07:49:23.094Z,983.70
2022-08-05T07:50:28.941Z,983.72
2022-08-05T07:51:37.546Z,983.71
2022-08-05T07:52:23.782Z,983.70
2022-08-05T07:53:23.052Z,983.69
2022-08-05T07:54:23.350Z,983.68
2022-08-05T07:56:05.725Z,983.68
2022-08-05T07:57:02.527Z,983.64
2022-08-05T07:57:52.234Z,983.61
2022-08-05T07:58:57.447Z,983.62
2022-08-05T07:59:30.995Z,983.63
2022-08-05T08:00:22.997Z,983.67
2022-08-05T08:01:23.044Z,983.71
2022-08-05T08:02:26.534Z,983.75
2022-08-05T08:03:22.961Z,983.78
2022-08-05T08:04:34.314Z,983.80
2022-08-05T08:05:22.945Z,983.84
2022-08-05T08:06:22.927Z,983.89
2022-08-05T08:07:23.388Z,983.94
2022-08-05T08:08:22.910Z,983.94
2022-08-05T08:09:22.902Z,983.92
2022-08-05T08:10:22.936Z,983.89
2022-08-05T08:11:27.771Z,983.85
2022-08-05T08:12:35.331Z,983.79
2022-08-05T08:13:29.437Z,983.74
2022-08-05T08:14:22.853Z,983.72
2022-08-05T08:16:35.791Z,983.73
2022-08-05T08:16:55.854Z,983.75
2022-08-05T08:17:23.409Z,983.76
2022-08-05T08:18:22.807Z,983.78
2022-08-05T08:20:21.888Z,983.76
2022-08-05T08:21:01.839Z,983.75
2022-08-05T08:21:22.783Z,983.71
2022-08-05T08:22:22.773Z,983.69
2022-08-05T08:24:02.165Z,983.70
2022-08-05T08:24:22.780Z,983.72
2022-08-05T08:25:27.134Z,983.75
2022-08-05T08:26:26.555Z,983.79
2022-08-05T08:27:23.120Z,983.79
2022-08-05T08:28:35.746Z,983.78
2022-08-05T08:30:03.178Z,983.77
2022-08-05T08:30:32.616Z,983.79
2022-08-05T08:31:22.684Z,983.80
2022-08-05T08:32:28.083Z,983.82
2022-08-05T08:33:22.672Z,983.84
2022-08-05T08:34:30.323Z,983.87
2022-08-05T08:35:22.646Z,983.89
2022-08-05T08:36:38.197Z,983.91
2022-08-05T08:37:28.056Z,983.92
2022-08-05T08:38:36.129Z,983.94
2022-08-05T08:39:22.639Z,983.89
2022-08-05T08:40:22.589Z,983.84
2022-08-05T08:41:26.122Z,983.83
2022-08-05T08:42:50.258Z,983.86
2022-08-05T08:45:17.127Z,983.88
2022-08-05T08:45:29.771Z,983.89
2022-08-05T08:45:35.472Z,983.88
2022-08-05T08:46:35.458Z,983.91
2022-08-05T08:48:05.702Z,983.94
2022-08-05T08:49:03.295Z,983.95
2022-08-05T08:50:22.901Z,983.99
2022-08-05T08:51:04.034Z,984.03
2022-08-05T08:52:13.457Z,984.07
2022-08-05T08:52:35.404Z,984.08
2022-08-05T08:53:35.418Z,984.08
2022-08-05T08:54:36.389Z,984.09
2022-08-05T08:56:03.439Z,984.09
2022-08-05T08:56:35.391Z,984.12
2022-08-05T08:57:46.451Z,984.13
2022-08-05T08:58:37.644Z,984.12
2022-08-05T08:59:35.360Z,984.17
2022-08-05T09:00:35.371Z,984.14
2022-08-05T09:01:35.313Z,984.16
2022-08-05T09:02:35.309Z,984.23
2022-08-05T09:03:40.508Z,984.24
2022-08-05T09:04:35.285Z,984.28
2022-08-05T09:05:38.606Z,984.29
2022-08-05T09:06:36.355Z,984.31
2022-08-05T09:07:39.478Z,984.32
2022-08-05T09:08:35.249Z,984.33
2022-08-05T09:09:35.665Z,984.34
2022-08-05T09:10:35.224Z,984.37
2022-08-05T09:11:53.397Z,984.35
2022-08-05T09:12:35.616Z,984.38
2022-08-05T09:14:09.194Z,984.37
2022-08-05T09:15:06.180Z,984.37
2022-08-05T09:15:36.921Z,984.34
2022-08-05T09:16:35.204Z,984.33
2022-08-05T09:17:42.313Z,984.32
2022-08-05T09:18:35.147Z,984.30
2022-08-05T09:19:36.336Z,984.29
2022-08-05T09:20:37.307Z,984.29
2022-08-05T09:22:22.776Z,984.28
2022-08-05T09:22:35.428Z,984.27
2022-08-05T09:23:37.461Z,984.26
2022-08-05T09:24:35.089Z,984.25
2022-08-05T09:26:00.858Z,984.24
2022-08-05T09:26:35.071Z,984.25
2022-08-05T09:28:05.387Z,984.23
2022-08-05T09:28:35.226Z,984.18
2022-08-05T09:29:35.031Z,984.15
2022-08-05T09:30:35.024Z,984.15
2022-08-05T09:32:41.098Z,984.15
2022-08-05T09:32:51.604Z,984.16
2022-08-05T09:33:35.422Z,984.15
2022-08-05T09:34:34.980Z,984.18
2022-08-05T09:35:34.970Z,984.18
2022-08-05T09:36:34.970Z,984.19
2022-08-05T09:38:12.917Z,984.20
2022-08-05T09:38:34.944Z,984.19
2022-08-05T09:39:42.009Z,984.22
2022-08-05T09:40:34.924Z,984.22
2022-08-05T09:41:38.259Z,984.26
2022-08-05T09:42:35.269Z,984.24
2022-08-05T09:43:41.277Z,984.20
2022-08-05T09:44:34.905Z,984.17
2022-08-05T09:46:06.697Z,984.12
2022-08-05T09:46:35.104Z,984.11
2022-08-05T09:47:48.139Z,984.09
2022-08-05T09:48:34.839Z,984.09
2022-08-05T09:49:57.095Z,984.10
2022-08-05T09:50:38.808Z,984.08
2022-08-05T09:51:36.635Z,984.08
2022-08-05T09:52:34.798Z,984.07
2022-08-05T09:53:54.313Z,984.09
2022-08-05T09:54:34.790Z,984.09
2022-08-05T09:55:58.061Z,984.09
2022-08-05T09:56:34.779Z,984.07
2022-08-05T09:57:35.382Z,984.05
2022-08-05T09:58:34.735Z,984.16
2022-08-05T09:59:35.099Z,984.14
2022-08-05T10:00:34.718Z,984.17
2022-08-05T10:01:34.709Z,984.13
2022-08-05T10:02:34.780Z,984.09
2022-08-05T10:03:56.615Z,984.05
2022-08-05T10:04:34.870Z,984.11
2022-08-05T10:05:34.670Z,984.13
2022-08-05T10:06:34.662Z,984.14
2022-08-05T10:08:10.593Z,984.16
2022-08-05T10:08:42.482Z,984.14
2022-08-05T10:09:44.868Z,984.13
2022-08-05T10:10:34.618Z,984.13
2022-08-05T10:11:35.270Z,984.13
2022-08-05T10:12:35.163Z,984.12
2022-08-05T10:13:47.564Z,984.10
2022-08-05T10:14:34.605Z,984.10
2022-08-05T10:15:34.632Z,984.08
2022-08-05T10:16:41.678Z,984.02
2022-08-05T10:17:39.203Z,984.01
2022-08-05T10:18:34.538Z,983.97
2022-08-05T10:20:03.577Z,983.95
2022-08-05T10:20:34.546Z,983.96
2022-08-05T10:21:35.379Z,983.99
2022-08-05T10:22:34.983Z,983.99
2022-08-05T10:23:59.252Z,983.96
2022-08-05T10:24:34.483Z,983.97
2022-08-05T10:25:34.462Z,983.95
2022-08-05T10:26:34.447Z,983.91
2022-08-05T10:28:13.551Z,983.87
2022-08-05T10:28:36.359Z,983.83
2022-08-05T10:30:06.387Z,983.85
2022-08-05T10:32:48.474Z,983.80
2022-08-05T10:33:02.492Z,983.80
2022-08-05T10:33:09.283Z,983.83
2022-08-05T10:34:08.252Z,983.81
2022-08-05T10:35:07.865Z,983.83
2022-08-05T10:36:07.861Z,983.84
2022-08-05T10:37:07.849Z,983.88
2022-08-05T10:38:08.383Z,983.85
2022-08-05T10:39:11.822Z,983.90
2022-08-05T10:40:17.698Z,983.87
2022-08-05T10:41:07.883Z,983.87
2022-08-05T10:42:07.801Z,983.87
2022-08-05T10:43:07.786Z,983.88
2022-08-05T10:44:07.799Z,983.93
2022-08-05T10:45:21.387Z,983.93
2022-08-05T10:46:07.787Z,983.96
2022-08-05T10:47:10.282Z,983.96
2022-08-05T10:48:30.341Z,983.97
2022-08-05T10:49:10.072Z,983.97
2022-08-05T10:50:31.544Z,983.99
2022-08-05T10:51:21.845Z,984.02
2022-08-05T10:52:19.902Z,984.03
2022-08-05T10:53:07.688Z,983.99
2022-08-05T10:54:28.212Z,983.98
2022-08-05T10:55:07.690Z,983.96
2022-08-05T10:56:14.868Z,983.96
2022-08-05T10:57:07.652Z,983.93
2022-08-05T10:58:07.656Z,983.87
2022-08-05T10:59:12.161Z,983.85
2022-08-05T11:00:13.281Z,983.82
2022-08-05T11:01:07.611Z,983.82
2022-08-05T11:02:07.721Z,983.82
2022-08-05T11:03:25.402Z,983.84
2022-08-05T11:04:07.638Z,983.85
2022-08-05T11:05:07.562Z,983.88
2022-08-05T11:06:08.455Z,983.92
2022-08-05T11:07:07.556Z,983.98
2022-08-05T11:08:33.872Z,983.98
2022-08-05T11:09:07.541Z,983.99
2022-08-05T11:10:10.124Z,984.01
2022-08-05T11:11:14.615Z,984.01
2022-08-05T11:12:07.498Z,984.00
2022-08-05T11:13:07.477Z,984.04
2022-08-05T11:14:07.499Z,984.04
2022-08-05T11:15:19.026Z,984.06
2022-08-05T11:16:07.457Z,984.04
2022-08-05T11:18:00.349Z,984.07
2022-08-05T11:18:11.585Z,984.06
2022-08-05T11:20:16.436Z,984.12
2022-08-05T11:20:23.180Z,984.12
2022-08-05T11:21:11.762Z,984.15
2022-08-05T11:22:07.401Z,984.14
2022-08-05T11:23:08.955Z,984.21
2022-08-05T11:24:29.811Z,984.20
2022-08-05T11:25:16.862Z,984.21
2022-08-05T11:26:10.905Z,984.25
2022-08-05T11:27:07.333Z,984.27
2022-08-05T11:28:07.329Z,984.31
2022-08-05T11:29:12.973Z,984.33
2022-08-05T11:30:07.363Z,984.30
2022-08-05T11:31:07.332Z,984.34
2022-08-05T11:32:07.286Z,984.36
2022-08-05T11:33:07.272Z,984.33
2022-08-05T11:34:08.028Z,984.34
2022-08-05T11:35:07.255Z,984.32
2022-08-05T11:36:08.564Z,984.30
2022-08-05T11:38:29.409Z,984.29
2022-08-05T11:38:45.406Z,984.30
2022-08-05T11:39:07.278Z,984.37
2022-08-05T11:40:07.273Z,984.39
2022-08-05T11:41:35.408Z,984.39
2022-08-05T11:42:07.190Z,984.46
2022-08-05T11:43:07.190Z,984.49
2022-08-05T11:44:08.490Z,984.55
2022-08-05T11:45:14.513Z,984.58
2022-08-05T11:46:15.480Z,984.58
2022-08-05T11:47:11.998Z,984.61
2022-08-05T11:48:07.146Z,984.64
2022-08-05T11:49:08.019Z,984.66
2022-08-05T11:50:07.287Z,984.70
2022-08-05T11:51:07.093Z,984.69
2022-08-05T11:52:11.536Z,984.73
2022-08-05T11:53:09.844Z,984.76
2022-08-05T11:54:07.069Z,984.78
2022-08-05T11:55:10.523Z,984.78
2022-08-05T11:56:07.078Z,984.81
2022-08-05T11:57:08.866Z,984.85
2022-08-05T11:58:09.297Z,984.87
2022-08-05T11:59:13.723Z,984.90
2022-08-05T12:00:07.047Z,984.92
2022-08-05T12:01:08.503Z,984.96
2022-08-05T12:02:06.986Z,984.99
2022-08-05T12:03:07.048Z,985.03
2022-08-05T12:04:06.964Z,985.05
2022-08-05T12:05:18.503Z,985.09
2022-08-05T12:06:10.180Z,985.14
2022-08-05T12:07:06.928Z,985.17
2022-08-05T12:08:10.868Z,985.17
2022-08-05T12:09:06.909Z,985.17
2022-08-05T12:10:09.585Z,985.22
2022-08-05T12:11:06.889Z,985.24
2022-08-05T12:12:06.899Z,985.28
2022-08-05T12:13:16.814Z,985.35
2022-08-05T12:14:06.905Z,985.35
2022-08-05T12:15:06.852Z,985.40
2022-08-05T12:16:15.069Z,985.44
2022-08-05T12:18:00.600Z,985.46
2022-08-05T12:18:15.053Z,985.45
2022-08-05T12:19:08.394Z,985.49
2022-08-05T12:20:25.367Z,985.49
2022-08-05T12:21:06.801Z,985.56
2022-08-05T12:22:09.530Z,985.55
2022-08-05T12:23:06.770Z,985.56
2022-08-05T12:24:07.491Z,985.56
2022-08-05T12:25:06.754Z,985.60
2022-08-05T12:26:06.900Z,985.61
2022-08-05T12:27:09.920Z,985.60
2022-08-05T12:28:06.779Z,985.62
2022-08-05T12:29:09.634Z,985.66
2022-08-05T12:30:06.718Z,985.67
2022-08-05T12:31:06.723Z,985.73